aviador You're here:

KCLK Decoded Metar

CLINTON in OK, USA
Report Time2017-07-26 22:15:00
UTC Time2017-07-26 22:30:28
Flight Rules vfr VFR
Wind180° at 15 Gusting to 19 kt
W.Decomp.*RWY 17: 15.0 kt HW 0.8 kt RCW
RWY 13: 11.0 kt HW 10.2 kt RCW
W.Rank180° ranks 4
Current wind is above 180° avg. (11.7)
Visibility9999 m
Phenomena:N/A
Clouds:N/A
Expected CloudBase > 9,600 ft AGL from Temp-Dew spread
CeilingNone
Temp36°C (ISA +24)
Dew Point12°C (23% RH)
Heat Index34.7°C
AAT31.1°C
QNH1014 hPa
Density Alt4,501 ft
Elevation1,614 ft
Report Wrong Elevation
Raw Report
KCLK 262215Z AUTO 18015G19KT 10SM CLR 36/12 A2994 RMK AO2=

Extra information for KCLK:More info

Metar Taf Metar & Taf Last 4 Metars F.Rules Stats Wind Profile Meteogram Temp Stats Airport Information Weather charts Add Link Nearby VenuesMetar ALERT Operation Metar Decoded Social comments

AIRNAV info for KCLK